Time;durP1;ratioP1;P1;durP2;ratioP2;P2;SDS_P1;SDS_P2;PMS_P1;PMS_P2;Temp;Humidity;BMP_temperature;BMP_pressure;BME280_temperature;BME280_humidity;BME280_pressure;Samples;Min_cycle;Max_cycle;Signal;HPM_P1;HPM_P2
2022/11/24 00:01:09;;;;;;;17.58;8.88;;;7.50;99.90;;;;;;4993979;28;20058;-66
2022/11/24 00:03:35;;;;;;;19.27;8.30;;;7.40;99.90;;;;;;4958983;28;20093;-66
2022/11/24 00:06:12;;;;;;;22.98;9.60;;;7.40;99.90;;;;;;4975631;28;20377;-65
2022/11/24 00:08:41;;;;;;;20.10;8.63;;;7.40;99.90;;;;;;4987581;28;20046;-66
2022/11/24 00:11:10;;;;;;;20.45;8.30;;;7.30;99.90;;;;;;4974056;28;20061;-67
2022/11/24 00:13:39;;;;;;;25.20;8.55;;;7.20;99.90;;;;;;4975559;28;20050;-66
2022/11/24 00:19:46;;;;;;;25.23;7.80;;;7.30;99.90;;;;;;5016898;28;20069;-66
2022/11/24 00:22:12;;;;;;;21.10;8.27;;;7.20;99.90;;;;;;4992454;28;20510;-67
2022/11/24 00:24:37;;;;;;;23.00;8.48;;;7.20;99.90;;;;;;4959602;28;20065;-66
2022/11/24 00:27:03;;;;;;;19.92;7.13;;;7.20;99.90;;;;;;4980074;28;20042;-66
2022/11/24 00:33:10;;;;;;;22.20;7.18;;;7.20;99.90;;;;;;5009504;28;20093;-66
2022/11/24 00:35:36;;;;;;;19.52;7.30;;;7.20;99.90;;;;;;4969682;28;20038;-67
2022/11/24 00:38:01;;;;;;;20.10;7.65;;;7.10;99.90;;;;;;4974834;28;20062;-67
2022/11/24 00:40:27;;;;;;;24.25;7.78;;;7.20;99.90;;;;;;4974946;28;20054;-66
2022/11/24 00:42:53;;;;;;;17.50;7.15;;;7.10;99.90;;;;;;4965917;28;20046;-66
2022/11/24 00:45:19;;;;;;;25.42;8.85;;;7.10;99.90;;;;;;4966352;28;20061;-68
2022/11/24 00:47:44;;;;;;;20.38;7.28;;;7.10;99.90;;;;;;4975033;28;20046;-68
2022/11/24 00:50:10;;;;;;;22.02;8.13;;;7.10;99.90;;;;;;4989912;28;20038;-67
2022/11/24 00:52:35;;;;;;;25.33;7.50;;;7.10;99.90;;;;;;4964587;28;20089;-68
2022/11/24 00:55:01;;;;;;;26.33;7.25;;;7.10;99.90;;;;;;4992373;28;20042;-68
2022/11/24 00:57:27;;;;;;;22.98;7.10;;;7.00;99.90;;;;;;5059416;22;20017;-66
2022/11/24 00:59:52;;;;;;;19.35;7.13;;;7.00;99.90;;;;;;5079840;28;20049;-67
2022/11/24 01:04:53;;;;;;;20.77;6.13;;;7.00;99.90;;;;;;5077991;22;20052;-66
2022/11/24 01:07:19;;;;;;;23.00;7.00;;;6.90;99.90;;;;;;5072868;28;20040;-67
2022/11/24 01:09:45;;;;;;;22.23;7.28;;;6.90;99.90;;;;;;5046199;28;20037;-67
2022/11/24 01:12:10;;;;;;;22.85;6.43;;;6.90;99.90;;;;;;5033279;28;20041;-66
2022/11/24 01:14:36;;;;;;;21.15;6.38;;;7.00;99.90;;;;;;5033215;28;20492;-67
2022/11/24 01:17:02;;;;;;;27.50;7.15;;;7.10;99.90;;;;;;5031001;28;20040;-67
2022/11/24 01:19:27;;;;;;;24.05;6.95;;;7.10;99.90;;;;;;5024254;28;20049;-67
2022/11/24 01:21:53;;;;;;;27.65;6.30;;;7.10;99.90;;;;;;5033150;28;20053;-66
2022/11/24 01:24:18;;;;;;;32.00;6.78;;;7.00;99.90;;;;;;5017548;28;20033;-66
2022/11/24 01:26:44;;;;;;;25.50;7.03;;;7.00;99.90;;;;;;5038876;28;20029;-66
2022/11/24 01:29:11;;;;;;;29.63;6.57;;;7.00;99.90;;;;;;5051363;28;20078;-66
2022/11/24 01:31:36;;;;;;;25.00;6.50;;;7.00;99.90;;;;;;5061860;28;20040;-67
2022/11/24 01:34:02;;;;;;;21.05;6.68;;;7.00;99.90;;;;;;5050238;28;20048;-66
2022/11/24 01:36:28;;;;;;;22.00;5.82;;;7.00;99.90;;;;;;5035355;28;20056;-66
2022/11/24 01:38:54;;;;;;;19.10;6.00;;;6.90;99.90;;;;;;5033525;28;20041;-66
2022/11/24 01:41:33;;;;;;;25.23;6.22;;;6.90;99.90;;;;;;5051530;28;20140;-68
2022/11/24 01:43:59;;;;;;;19.67;5.53;;;6.90;99.90;;;;;;5057861;28;20033;-65
2022/11/24 01:46:37;;;;;;;20.15;6.00;;;6.80;99.90;;;;;;5033276;28;20060;-66
2022/11/24 01:49:18;;;;;;;23.92;5.40;;;6.80;99.90;;;;;;5037341;28;20041;-66
2022/11/24 01:51:54;;;;;;;;;;;6.80;99.90;;;;;;5032935;28;20044;-66
2022/11/24 01:54:25;;;;;;;19.65;5.53;;;6.90;99.90;;;;;;5041107;28;20301;-67
2022/11/24 01:56:53;;;;;;;;;;;6.90;99.90;;;;;;5071640;28;20115;-67
2022/11/24 01:59:20;;;;;;;17.90;5.35;;;6.90;99.90;;;;;;5038027;28;19921;-66
2022/11/24 02:01:49;;;;;;;22.77;6.18;;;6.80;99.90;;;;;;5032140;28;20052;-68
2022/11/24 02:04:22;;;;;;;22.98;6.55;;;6.80;99.90;;;;;;5058293;28;20058;-65
2022/11/24 02:06:51;;;;;;;17.95;5.25;;;6.80;99.90;;;;;;5031186;28;20044;-67
2022/11/24 02:09:24;;;;;;;24.35;5.70;;;6.80;99.90;;;;;;5032951;22;20034;-67
2022/11/24 02:11:52;;;;;;;20.55;5.40;;;6.90;99.90;;;;;;5011399;28;20050;-66
2022/11/24 02:14:20;;;;;;;22.90;5.07;;;6.90;99.90;;;;;;5011533;28;20137;-65
2022/11/24 02:16:49;;;;;;;21.50;5.40;;;6.90;99.90;;;;;;5004464;28;20133;-66
2022/11/24 02:19:39;;;;;;;26.60;5.22;;;6.90;99.90;;;;;;5008647;28;20042;-65
2022/11/24 02:22:10;;;;;;;26.58;5.60;;;7.00;99.90;;;;;;4991517;28;20132;-67
2022/11/24 02:24:46;;;;;;;17.58;5.43;;;7.00;99.90;;;;;;5012634;28;20057;-65
2022/11/24 02:27:11;;;;;;;19.15;5.50;;;7.00;99.90;;;;;;5013029;28;20046;-67
2022/11/24 02:29:38;;;;;;;29.13;5.78;;;7.00;99.90;;;;;;5014960;28;20038;-66
2022/11/24 02:32:06;;;;;;;26.77;6.00;;;7.10;99.90;;;;;;5026237;28;20046;-66
2022/11/24 02:34:31;;;;;;;19.25;5.43;;;7.10;99.90;;;;;;5012427;28;20137;-68
2022/11/24 02:36:57;;;;;;;25.77;6.18;;;7.00;99.90;;;;;;5015010;28;20524;-67
2022/11/24 02:39:23;;;;;;;25.23;4.78;;;7.10;99.90;;;;;;5005859;28;20412;-67
2022/11/24 02:41:53;;;;;;;26.25;4.88;;;7.10;99.90;;;;;;5005270;28;20458;-68
2022/11/24 02:44:23;;;;;;;21.30;5.03;;;7.10;99.90;;;;;;5013234;28;20065;-67
2022/11/24 02:46:59;;;;;;;23.83;5.63;;;7.20;99.90;;;;;;5008205;28;20109;-66
2022/11/24 02:49:25;;;;;;;28.85;5.00;;;7.30;99.90;;;;;;5003383;28;20035;-66
2022/11/24 02:51:51;;;;;;;21.98;4.85;;;7.40;99.90;;;;;;5014024;28;20037;-67
2022/11/24 02:54:16;;;;;;;18.70;4.88;;;7.40;99.90;;;;;;5013629;28;20061;-65
2022/11/24 02:56:42;;;;;;;20.48;4.45;;;7.50;99.90;;;;;;5004517;28;20711;-66
2022/11/24 02:59:07;;;;;;;21.48;4.72;;;7.60;99.90;;;;;;5012475;28;20041;-67
2022/11/24 03:01:33;;;;;;;16.67;4.65;;;7.60;99.90;;;;;;5012385;28;20038;-66
2022/11/24 03:03:59;;;;;;;21.13;4.68;;;7.70;99.90;;;;;;5013226;28;20038;-64
2022/11/24 03:06:24;;;;;;;27.58;5.65;;;7.70;99.90;;;;;;5003970;28;20092;-67
2022/11/24 03:08:50;;;;;;;27.92;4.60;;;7.80;99.90;;;;;;5013632;28;20408;-66
2022/11/24 03:11:15;;;;;;;21.65;5.00;;;7.90;99.90;;;;;;5012908;28;20492;-67
2022/11/24 03:13:41;;;;;;;20.25;4.13;;;7.90;99.90;;;;;;4999430;28;20045;-67
2022/11/24 03:16:09;;;;;;;17.17;3.97;;;7.90;99.90;;;;;;5008909;28;20037;-67
2022/11/24 03:18:34;;;;;;;21.75;4.50;;;7.90;99.90;;;;;;5012754;28;20041;-67
2022/11/24 03:21:00;;;;;;;16.83;4.10;;;8.00;99.90;;;;;;5012212;28;20069;-67
2022/11/24 03:23:25;;;;;;;20.50;4.07;;;8.00;99.90;;;;;;4996064;28;20108;-67
2022/11/24 03:25:51;;;;;;;13.80;3.92;;;8.10;99.90;;;;;;5007082;28;20034;-67
2022/11/24 03:28:17;;;;;;;18.25;4.25;;;8.10;99.90;;;;;;5012193;28;20045;-67
2022/11/24 03:30:42;;;;;;;20.38;4.47;;;8.10;99.90;;;;;;4992114;28;20057;-66
2022/11/24 03:33:08;;;;;;;18.88;4.03;;;8.10;99.90;;;;;;5006798;28;20046;-66
2022/11/24 03:35:34;;;;;;;19.92;3.92;;;8.00;99.90;;;;;;5012323;28;20048;-67
2022/11/24 03:37:59;;;;;;;15.57;3.72;;;7.90;99.90;;;;;;5008892;28;20132;-67
2022/11/24 03:40:25;;;;;;;19.40;3.65;;;7.90;99.90;;;;;;5002820;28;20049;-67
2022/11/24 03:42:50;;;;;;;19.10;3.90;;;7.90;99.90;;;;;;5011814;28;20496;-67
2022/11/24 03:45:16;;;;;;;20.48;3.85;;;7.80;99.90;;;;;;5008941;28;20401;-65
2022/11/24 03:47:42;;;;;;;17.98;3.92;;;7.90;99.90;;;;;;5008666;28;20073;-67
2022/11/24 03:50:08;;;;;;;17.92;3.55;;;7.90;99.90;;;;;;5011830;28;20052;-67
2022/11/24 03:52:34;;;;;;;19.77;3.50;;;7.80;99.90;;;;;;5011941;28;20092;-67
2022/11/24 03:54:59;;;;;;;20.55;4.13;;;7.70;99.90;;;;;;5004599;28;20038;-67
2022/11/24 03:57:25;;;;;;;12.18;3.25;;;7.70;99.90;;;;;;5008006;28;20456;-67
2022/11/24 03:59:50;;;;;;;14.93;3.20;;;7.70;99.90;;;;;;5012870;28;20038;-67
2022/11/24 04:02:16;;;;;;;17.50;3.55;;;7.70;99.90;;;;;;5005956;28;20436;-67
2022/11/24 04:04:42;;;;;;;20.42;3.88;;;7.60;99.90;;;;;;5001478;28;20064;-67
2022/11/24 04:07:07;;;;;;;15.88;3.40;;;7.60;99.90;;;;;;5011510;28;20088;-67
2022/11/24 04:09:33;;;;;;;15.82;3.60;;;7.50;99.90;;;;;;5011776;28;20096;-66
2022/11/24 04:14:43;;;;;;;18.45;3.75;;;7.50;99.90;;;;;;5011819;28;20088;-67
2022/11/24 04:17:08;;;;;;;17.25;4.45;;;7.60;99.90;;;;;;5013244;28;20065;-67
2022/11/24 04:19:34;;;;;;;15.60;3.22;;;7.60;99.90;;;;;;4999007;28;20484;-67
2022/11/24 04:21:59;;;;;;;15.35;3.53;;;7.70;99.90;;;;;;4998407;28;20038;-67
2022/11/24 04:24:25;;;;;;;17.55;3.75;;;7.70;99.90;;;;;;5011879;28;20038;-67
2022/11/24 04:26:50;;;;;;;16.48;3.85;;;7.70;99.90;;;;;;5009259;28;20403;-67
2022/11/24 04:29:16;;;;;;;19.48;3.53;;;7.70;99.90;;;;;;5007153;28;20140;-67
2022/11/24 04:31:41;;;;;;;19.35;3.78;;;7.70;99.90;;;;;;5010254;28;20049;-68
2022/11/24 04:34:07;;;;;;;16.05;3.13;;;7.70;99.90;;;;;;5012837;28;20103;-67
2022/11/24 04:36:33;;;;;;;20.88;3.67;;;7.70;99.90;;;;;;5003890;28;20523;-67
2022/11/24 04:38:58;;;;;;;17.15;3.35;;;7.70;99.90;;;;;;5010758;28;20042;-67
2022/11/24 04:41:24;;;;;;;20.58;4.18;;;7.80;99.90;;;;;;5010850;28;20038;-67
2022/11/24 04:43:50;;;;;;;14.20;3.42;;;7.80;99.90;;;;;;5003178;28;20485;-67
2022/11/24 04:46:15;;;;;;;18.88;3.20;;;7.80;99.90;;;;;;5006849;28;20049;-68
2022/11/24 04:48:41;;;;;;;25.90;3.72;;;7.80;99.90;;;;;;5011380;28;20042;-67
2022/11/24 04:51:07;;;;;;;18.27;3.60;;;7.80;99.90;;;;;;5011319;28;20067;-68
2022/11/24 04:53:33;;;;;;;15.18;3.30;;;7.90;99.90;;;;;;5002457;28;20500;-67
2022/11/24 04:55:58;;;;;;;16.55;3.40;;;7.90;99.90;;;;;;5007124;28;20037;-67
2022/11/24 04:58:24;;;;;;;13.65;3.50;;;7.90;99.90;;;;;;5011708;28;20042;-68
2022/11/24 05:00:49;;;;;;;19.90;4.10;;;7.90;99.90;;;;;;5006053;28;20462;-67
2022/11/24 05:03:15;;;;;;;18.40;3.58;;;7.90;99.90;;;;;;5001983;28;20037;-67
2022/11/24 05:05:41;;;;;;;14.05;3.40;;;7.90;99.90;;;;;;5011854;28;20038;-67
2022/11/24 05:08:07;;;;;;;20.15;3.83;;;7.90;99.90;;;;;;5010645;28;20074;-67
2022/11/24 05:10:36;;;;;;;24.00;4.40;;;7.90;99.90;;;;;;4992375;28;20056;-67
2022/11/24 05:13:05;;;;;;;14.35;3.65;;;7.80;99.90;;;;;;5005179;28;20530;-67
2022/11/24 05:15:31;;;;;;;18.35;3.30;;;7.70;99.90;;;;;;5010513;28;20046;-67
2022/11/24 05:17:57;;;;;;;16.83;3.42;;;7.70;99.90;;;;;;5002674;28;20052;-67
2022/11/24 05:20:23;;;;;;;16.80;3.42;;;7.60;99.90;;;;;;5002896;28;20041;-67
2022/11/24 05:22:48;;;;;;;18.27;3.50;;;7.50;99.90;;;;;;5011665;28;20065;-68
2022/11/24 05:25:14;;;;;;;19.30;4.07;;;7.50;99.90;;;;;;4998631;28;20401;-68
2022/11/24 05:27:40;;;;;;;17.92;3.47;;;7.40;99.90;;;;;;5001198;28;20042;-68
2022/11/24 05:30:06;;;;;;;16.08;3.50;;;7.30;99.90;;;;;;5011640;28;20095;-67
2022/11/24 05:32:32;;;;;;;20.85;3.60;;;7.20;99.90;;;;;;4992237;28;20381;-67
2022/11/24 05:34:59;;;;;;;16.65;3.45;;;7.20;99.90;;;;;;5004752;28;20096;-67
2022/11/24 05:37:27;;;;;;;19.17;2.90;;;7.10;99.90;;;;;;5007702;28;20116;-67
2022/11/24 05:39:53;;;;;;;15.02;3.20;;;7.00;99.90;;;;;;5005580;28;20045;-68
2022/11/24 05:45:03;;;;;;;15.52;3.50;;;7.00;99.90;;;;;;5000763;28;20053;-68
2022/11/24 05:47:30;;;;;;;17.23;3.38;;;6.90;99.90;;;;;;5009903;28;20034;-68
2022/11/24 05:49:56;;;;;;;21.88;3.65;;;6.90;99.90;;;;;;5011266;28;20049;-67
2022/11/24 05:52:22;;;;;;;17.52;3.50;;;6.90;99.90;;;;;;5002600;28;20038;-66
2022/11/24 05:54:47;;;;;;;22.45;4.32;;;6.90;99.90;;;;;;5010239;28;20502;-67
2022/11/24 05:57:13;;;;;;;16.02;3.72;;;6.90;99.90;;;;;;5013561;28;20506;-68
2022/11/24 05:59:39;;;;;;;11.70;3.47;;;6.80;99.90;;;;;;5003316;28;20033;-66
2022/11/24 06:02:04;;;;;;;18.92;3.55;;;6.80;99.90;;;;;;5007177;28;20046;-67
2022/11/24 06:04:30;;;;;;;15.95;3.58;;;6.80;99.90;;;;;;5010689;28;20033;-67
2022/11/24 06:06:56;;;;;;;13.85;3.30;;;6.80;99.90;;;;;;5008763;28;20042;-67
2022/11/24 06:09:21;;;;;;;17.60;3.42;;;6.70;99.90;;;;;;5009028;28;20038;-67
2022/11/24 06:11:48;;;;;;;18.73;3.70;;;6.70;99.90;;;;;;5011207;28;20087;-67
2022/11/24 06:14:13;;;;;;;15.35;3.38;;;6.70;99.90;;;;;;5005859;28;20042;-67
2022/11/24 06:16:39;;;;;;;11.63;3.58;;;6.70;99.90;;;;;;5004285;28;20046;-67
2022/11/24 06:19:05;;;;;;;19.63;4.30;;;6.70;99.90;;;;;;5010020;28;20116;-66
2022/11/24 06:21:31;;;;;;;15.05;3.45;;;6.80;99.90;;;;;;5010771;28;20052;-67
2022/11/24 06:23:57;;;;;;;20.13;3.83;;;6.70;99.90;;;;;;5035235;28;20034;-68
2022/11/24 06:26:22;;;;;;;20.00;3.35;;;6.80;99.90;;;;;;4999888;28;20539;-67
2022/11/24 06:28:48;;;;;;;15.45;3.67;;;6.80;99.90;;;;;;5010789;28;20046;-67
2022/11/24 06:31:14;;;;;;;18.20;3.90;;;6.90;99.90;;;;;;5010055;28;20044;-67
2022/11/24 06:33:40;;;;;;;21.27;3.80;;;6.90;99.90;;;;;;4998232;28;20516;-67
2022/11/24 06:36:09;;;;;;;18.42;3.88;;;6.90;99.90;;;;;;4996789;28;20046;-67
2022/11/24 06:38:35;;;;;;;18.13;3.70;;;7.00;99.90;;;;;;5007388;28;20734;-67
2022/11/24 06:41:02;;;;;;;19.88;3.50;;;7.00;99.90;;;;;;5010647;28;20408;-68
2022/11/24 06:43:29;;;;;;;18.77;4.82;;;7.10;99.90;;;;;;5013147;28;20042;-67
2022/11/24 06:45:55;;;;;;;15.30;3.78;;;7.10;99.90;;;;;;5007593;28;20503;-67
2022/11/24 06:48:21;;;;;;;21.30;3.72;;;7.20;99.90;;;;;;5002288;28;20046;-68
2022/11/24 06:50:55;;;;;;;14.02;3.90;;;7.30;99.90;;;;;;4999098;28;20048;-67
2022/11/24 06:53:51;;;;;;;21.02;3.60;;;7.30;99.90;;;;;;5010281;28;20045;-67
2022/11/24 06:56:19;;;;;;;20.63;4.82;;;7.40;99.90;;;;;;5012390;28;20592;-67
2022/11/24 06:58:47;;;;;;;22.60;4.22;;;7.50;99.90;;;;;;5004393;28;20444;-67
2022/11/24 07:01:15;;;;;;;24.65;5.47;;;7.50;99.90;;;;;;5006623;28;20038;-67
2022/11/24 07:03:40;;;;;;;26.08;4.47;;;7.60;99.90;;;;;;5011707;28;20034;-67
2022/11/24 07:06:06;;;;;;;20.27;4.10;;;7.70;99.90;;;;;;5000728;28;20421;-67
2022/11/24 07:08:32;;;;;;;19.80;4.15;;;7.70;99.90;;;;;;5007538;28;20037;-67
2022/11/24 07:11:04;;;;;;;15.85;3.92;;;7.70;99.90;;;;;;5003155;28;20050;-67
2022/11/24 07:13:29;;;;;;;20.23;4.13;;;7.70;99.90;;;;;;5007608;28;20060;-66
2022/11/24 07:15:55;;;;;;;14.95;3.90;;;7.70;99.90;;;;;;5011760;28;20429;-67
2022/11/24 07:18:20;;;;;;;23.25;4.35;;;7.70;99.90;;;;;;4999374;28;20047;-67
2022/11/24 07:20:46;;;;;;;22.42;3.95;;;7.70;99.90;;;;;;5006522;28;20079;-67
2022/11/24 07:23:12;;;;;;;21.35;4.80;;;7.70;99.90;;;;;;5000373;28;20138;-67
2022/11/24 07:25:38;;;;;;;17.40;3.95;;;7.70;99.90;;;;;;5009697;28;20053;-67
2022/11/24 07:28:04;;;;;;;21.52;4.63;;;7.70;99.90;;;;;;5013364;28;20045;-67
2022/11/24 07:30:30;;;;;;;19.23;4.22;;;7.70;99.90;;;;;;5008573;28;21070;-67
2022/11/24 07:33:02;;;;;;;18.13;4.13;;;7.70;99.90;;;;;;5004023;28;20044;-67
2022/11/24 07:35:29;;;;;;;19.00;4.93;;;7.70;99.90;;;;;;5011869;28;20436;-67
2022/11/24 07:37:58;;;;;;;28.63;5.32;;;7.70;99.90;;;;;;5012746;28;20473;-67
2022/11/24 07:40:25;;;;;;;20.88;4.18;;;7.70;99.90;;;;;;5007577;28;20056;-67
2022/11/24 07:42:51;;;;;;;21.17;3.70;;;7.70;99.90;;;;;;5012460;28;20084;-67
2022/11/24 07:45:16;;;;;;;26.95;4.95;;;7.70;99.90;;;;;;5012386;28;20042;-67
2022/11/24 07:47:42;;;;;;;28.15;5.32;;;7.70;99.90;;;;;;5012282;28;20037;-67
2022/11/24 07:50:09;;;;;;;16.63;4.30;;;7.80;99.90;;;;;;5000897;28;20050;-67
2022/11/24 07:52:36;;;;;;;19.83;4.40;;;7.80;99.90;;;;;;5011846;28;20061;-67
2022/11/24 07:55:02;;;;;;;15.02;4.57;;;7.80;99.90;;;;;;5013217;28;20034;-66
2022/11/24 07:57:28;;;;;;;19.40;4.90;;;7.90;99.90;;;;;;5001451;28;20026;-67
2022/11/24 07:59:54;;;;;;;14.77;4.25;;;7.90;99.90;;;;;;5012962;28;20108;-66
2022/11/24 08:02:20;;;;;;;17.75;4.70;;;7.90;99.90;;;;;;5011820;28;20046;-67
2022/11/24 08:04:46;;;;;;;18.30;4.53;;;7.90;99.90;;;;;;5009742;28;20112;-67
2022/11/24 08:07:11;;;;;;;17.70;5.10;;;7.90;99.90;;;;;;5001652;28;20042;-67
2022/11/24 08:09:37;;;;;;;17.73;5.05;;;7.90;99.90;;;;;;5080687;22;20049;-66
2022/11/24 08:12:02;;;;;;;15.50;4.25;;;7.90;99.90;;;;;;5068172;28;20041;-65
2022/11/24 08:14:28;;;;;;;20.35;4.82;;;7.80;99.90;;;;;;5029354;28;20080;-66
2022/11/24 08:16:54;;;;;;;15.32;4.63;;;7.80;99.90;;;;;;5032795;28;20041;-67
2022/11/24 08:19:21;;;;;;;15.60;4.38;;;7.80;99.90;;;;;;5051232;28;20558;-66
2022/11/24 08:21:46;;;;;;;16.63;4.05;;;7.80;99.90;;;;;;5032919;28;20102;-66
2022/11/24 08:24:14;;;;;;;16.45;4.25;;;7.80;99.90;;;;;;5051905;28;20400;-67
2022/11/24 08:26:40;;;;;;;15.32;3.90;;;7.70;99.90;;;;;;5051590;28;20045;-66
2022/11/24 08:29:06;;;;;;;13.10;4.38;;;7.70;99.90;;;;;;5037167;28;20465;-66
2022/11/24 08:31:34;;;;;;;14.57;4.97;;;7.80;99.90;;;;;;5050458;28;20043;-65
2022/11/24 08:34:01;;;;;;;13.18;4.40;;;7.80;99.90;;;;;;5051945;28;20098;-66
2022/11/24 08:36:26;;;;;;;13.25;4.45;;;7.90;99.90;;;;;;5052311;28;20529;-67
2022/11/24 08:38:57;;;;;;;14.43;4.22;;;8.00;99.90;;;;;;5050093;28;20031;-65
2022/11/24 08:41:23;;;;;;;12.63;4.00;;;8.00;99.90;;;;;;5043762;28;20048;-67
2022/11/24 08:43:49;;;;;;;15.27;4.00;;;8.00;99.90;;;;;;5051789;28;20040;-66
2022/11/24 08:46:16;;;;;;;9.80;4.22;;;8.00;99.90;;;;;;5050950;28;20033;-66
2022/11/24 08:48:43;;;;;;;15.68;4.95;;;8.00;99.90;;;;;;5067591;28;20036;-66
2022/11/24 08:51:14;;;;;;;14.90;4.68;;;8.00;99.90;;;;;;5071387;28;20119;-66
2022/11/24 08:53:40;;;;;;;17.17;4.50;;;8.00;99.90;;;;;;5067429;28;20032;-66
2022/11/24 08:56:08;;;;;;;14.52;4.63;;;8.00;99.90;;;;;;5048322;28;20045;-66
2022/11/24 08:58:33;;;;;;;15.55;4.35;;;8.00;99.90;;;;;;5057718;28;20411;-66
2022/11/24 09:01:07;;;;;;;15.80;4.20;;;8.10;99.90;;;;;;5028410;28;20053;-66
2022/11/24 09:03:33;;;;;;;15.15;5.20;;;8.10;99.90;;;;;;5049147;28;20495;-66
2022/11/24 09:05:59;;;;;;;21.95;4.55;;;8.20;99.90;;;;;;5050402;28;20028;-66
2022/11/24 09:08:25;;;;;;;16.02;5.28;;;8.30;99.90;;;;;;5050399;28;20041;-66
2022/11/24 09:10:51;;;;;;;14.60;4.63;;;8.30;99.90;;;;;;5033480;28;20048;-66
2022/11/24 09:13:16;;;;;;;9.98;4.38;;;8.30;99.90;;;;;;5051649;28;20127;-66
2022/11/24 09:15:42;;;;;;;12.65;4.18;;;8.30;99.90;;;;;;5048350;28;20132;-65
2022/11/24 09:18:08;;;;;;;10.25;3.92;;;8.40;99.90;;;;;;5065526;28;20059;-65
2022/11/24 09:20:33;;;;;;;10.10;4.03;;;8.40;99.90;;;;;;5057584;28;20113;-66
2022/11/24 09:22:59;;;;;;;10.50;3.80;;;8.50;99.90;;;;;;5050647;28;20120;-66
2022/11/24 09:25:25;;;;;;;15.43;4.35;;;8.50;99.90;;;;;;5051225;28;20043;-66
2022/11/24 09:27:51;;;;;;;15.85;3.78;;;8.60;99.90;;;;;;5030820;28;20041;-66
2022/11/24 09:30:17;;;;;;;10.95;4.28;;;8.60;99.90;;;;;;5032963;28;20060;-66
2022/11/24 09:32:43;;;;;;;13.65;4.00;;;8.60;99.90;;;;;;5052588;28;20103;-65
2022/11/24 09:35:09;;;;;;;7.60;3.90;;;8.70;99.90;;;;;;5068826;28;20048;-66
2022/11/24 09:37:34;;;;;;;8.63;4.47;;;8.70;99.90;;;;;;5044306;28;20052;-66
2022/11/24 09:40:00;;;;;;;12.25;4.15;;;8.70;99.90;;;;;;5050770;28;20037;-66
2022/11/24 09:42:42;;;;;;;9.88;4.30;;;8.80;99.90;;;;;;5050908;28;20395;-66
2022/11/24 09:45:56;;;;;;;11.00;5.10;;;8.80;99.90;;;;;;5030642;28;20041;-66
2022/11/24 09:48:27;;;;;;;9.82;4.50;;;8.90;99.90;;;;;;5029135;28;20099;-66
2022/11/24 09:50:54;;;;;;;11.85;4.38;;;9.00;99.90;;;;;;5045628;28;20513;-66
2022/11/24 09:53:36;;;;;;;10.27;5.63;;;9.00;99.90;;;;;;5052039;28;20047;-67
2022/11/24 09:56:21;;;;;;;9.63;4.20;;;9.10;99.90;;;;;;5050650;28;20040;-67
2022/11/24 09:59:01;;;;;;;10.30;4.68;;;9.30;99.90;;;;;;5049291;28;20507;-66
2022/11/24 10:01:35;;;;;;;11.98;4.85;;;9.30;99.90;;;;;;5048192;28;20086;-66
2022/11/24 10:04:02;;;;;;;8.90;4.85;;;9.40;99.90;;;;;;5051388;28;20137;-66
2022/11/24 10:06:37;;;;;;;9.25;4.65;;;9.50;99.90;;;;;;5067043;28;20066;-66
2022/11/24 10:09:03;;;;;;;9.50;4.88;;;9.40;99.90;;;;;;5056178;28;20037;-66
2022/11/24 10:12:07;;;;;;;10.15;4.65;;;9.30;99.90;;;;;;5050172;28;20406;-66
2022/11/24 10:14:58;;;;;;;10.10;5.05;;;9.30;99.90;;;;;;5049717;28;20166;-66
2022/11/24 10:17:49;;;;;;;14.00;5.25;;;9.30;99.90;;;;;;5048842;28;20087;-66
2022/11/24 10:20:27;;;;;;;;;;;9.30;99.90;;;;;;5035854;28;20072;-66
2022/11/24 10:23:17;;;;;;;8.95;5.13;;;9.40;99.90;;;;;;5050801;28;19916;-66
2022/11/24 10:26:05;;;;;;;11.57;5.30;;;9.40;99.90;;;;;;5053760;28;20754;-66
2022/11/24 10:28:53;;;;;;;9.15;4.97;;;9.60;99.90;;;;;;5050542;28;20119;-66
2022/11/24 10:31:32;;;;;;;11.32;6.18;;;9.70;99.90;;;;;;5055633;28;20041;-67
2022/11/24 10:34:08;;;;;;;12.82;5.70;;;9.80;99.90;;;;;;5061860;28;20089;-67
2022/11/24 10:36:47;;;;;;;11.70;5.78;;;9.90;99.90;;;;;;5055648;28;20036;-67
2022/11/24 10:39:27;;;;;;;12.20;6.47;;;10.00;99.90;;;;;;5058166;28;20052;-69
2022/11/24 10:41:59;;;;;;;10.13;5.57;;;10.10;99.90;;;;;;5031633;28;20041;-68
2022/11/24 10:44:25;;;;;;;13.02;6.78;;;10.10;99.90;;;;;;5044909;28;20041;-69
2022/11/24 10:46:51;;;;;;;11.55;6.65;;;10.00;99.90;;;;;;5053879;28;20033;-69
2022/11/24 10:49:26;;;;;;;13.90;6.63;;;10.10;99.90;;;;;;5036454;28;20107;-69
2022/11/24 10:52:15;;;;;;;13.02;6.63;;;10.10;99.90;;;;;;5056819;28;20029;-69
2022/11/24 10:54:58;;;;;;;12.32;5.93;;;10.10;99.90;;;;;;5054404;28;20045;-69
2022/11/24 10:57:36;;;;;;;14.50;6.05;;;10.20;99.90;;;;;;5044985;28;20090;-68
2022/11/24 11:00:24;;;;;;;15.73;7.07;;;10.20;99.90;;;;;;5048943;28;20044;-69
2022/11/24 11:03:10;;;;;;;12.02;6.45;;;10.30;99.90;;;;;;5051676;28;20064;-68
2022/11/24 11:05:40;;;;;;;14.02;6.55;;;10.30;99.90;;;;;;5063345;28;20082;-67
2022/11/24 11:08:12;;;;;;;13.05;6.88;;;10.30;99.90;;;;;;5074068;28;20123;-69
2022/11/24 11:10:39;;;;;;;13.88;7.47;;;10.30;99.90;;;;;;5047197;28;20041;-71
2022/11/24 11:13:23;;;;;;;13.85;6.90;;;10.30;99.90;;;;;;5065879;28;20107;-68
2022/11/24 11:15:49;;;;;;;11.13;6.47;;;10.30;99.90;;;;;;5051661;28;20048;-67
2022/11/24 11:18:16;;;;;;;15.10;6.72;;;10.40;99.90;;;;;;5064060;28;20550;-67
2022/11/24 11:20:57;;;;;;;15.63;7.18;;;10.40;99.90;;;;;;5038255;28;20044;-68
2022/11/24 11:23:26;;;;;;;14.95;6.72;;;10.40;99.90;;;;;;5038843;28;20037;-67
2022/11/24 11:26:31;;;;;;;15.80;6.57;;;10.40;99.90;;;;;;5068513;28;20032;-67
2022/11/24 11:29:03;;;;;;;17.38;7.25;;;10.40;99.90;;;;;;5060943;28;20202;-68
2022/11/24 11:31:33;;;;;;;13.27;7.28;;;10.40;99.90;;;;;;5068573;28;20040;-68
2022/11/24 11:34:11;;;;;;;13.60;6.82;;;10.40;99.90;;;;;;5054392;28;20041;-67
2022/11/24 11:36:49;;;;;;;15.05;6.30;;;10.40;99.90;;;;;;5041917;28;20487;-67
2022/11/24 11:39:28;;;;;;;13.55;7.00;;;10.40;99.90;;;;;;5055913;28;20041;-67
2022/11/24 11:42:15;;;;;;;15.38;7.38;;;10.50;99.90;;;;;;5042025;28;20036;-69
2022/11/24 11:45:10;;;;;;;17.40;7.60;;;10.50;99.90;;;;;;5061255;28;20406;-69
2022/11/24 11:48:00;;;;;;;17.50;7.90;;;10.50;99.90;;;;;;5051378;28;20075;-69
2022/11/24 11:50:49;;;;;;;14.20;7.50;;;10.50;99.90;;;;;;5044474;28;20088;-67
2022/11/24 11:53:45;;;;;;;12.90;7.55;;;10.60;99.90;;;;;;5061100;28;20560;-68
2022/11/24 11:56:31;;;;;;;14.35;7.25;;;10.50;99.90;;;;;;5035194;28;20059;-68
2022/11/24 11:59:27;;;;;;;19.23;8.23;;;10.60;99.90;;;;;;5051746;28;20059;-68
2022/11/24 12:01:56;;;;;;;18.08;7.68;;;10.60;99.90;;;;;;5048991;28;20036;-68
2022/11/24 12:04:36;;;;;;;17.65;7.93;;;10.60;99.90;;;;;;5051022;28;20037;-68
2022/11/24 12:07:15;;;;;;;17.70;7.87;;;10.70;99.90;;;;;;5056634;28;20036;-68
2022/11/24 12:10:07;;;;;;;18.73;8.25;;;10.70;99.90;;;;;;5062246;28;20274;-69
2022/11/24 12:13:00;;;;;;;14.90;7.68;;;10.70;99.90;;;;;;5061720;28;20509;-69
2022/11/24 12:15:58;;;;;;;12.80;7.53;;;10.70;99.90;;;;;;5051408;28;20040;-69
2022/11/24 12:18:33;;;;;;;15.50;7.57;;;10.70;99.90;;;;;;5048156;28;20099;-69
2022/11/24 12:21:16;;;;;;;18.58;8.00;;;10.70;99.90;;;;;;5051015;28;20041;-69
2022/11/24 12:24:13;;;;;;;18.75;8.43;;;10.70;99.90;;;;;;5048581;28;20033;-69
2022/11/24 12:27:10;;;;;;;18.67;6.85;;;10.80;99.90;;;;;;5051824;28;20597;-70
2022/11/24 12:29:55;;;;;;;13.77;6.80;;;10.80;99.90;;;;;;5033884;28;20056;-69
2022/11/24 12:32:33;;;;;;;13.45;7.05;;;10.80;99.90;;;;;;5051210;28;20041;-68
2022/11/24 12:35:05;;;;;;;16.17;7.32;;;10.90;99.90;;;;;;5038918;28;20041;-69
2022/11/24 12:37:45;;;;;;;18.90;7.22;;;10.90;99.90;;;;;;5058749;28;20048;-68
2022/11/24 12:40:33;;;;;;;12.73;6.57;;;10.90;99.90;;;;;;5044065;28;20433;-67
2022/11/24 12:43:21;;;;;;;15.68;6.28;;;10.90;99.90;;;;;;5051069;28;20291;-68
2022/11/24 12:45:50;;;;;;;16.25;5.80;;;11.00;99.90;;;;;;5051863;28;20037;-67
2022/11/24 12:48:37;;;;;;;12.20;6.20;;;11.00;99.90;;;;;;5049254;28;20040;-66
2022/11/24 12:51:09;;;;;;;16.38;6.45;;;11.10;99.90;;;;;;5033746;28;20134;-67
2022/11/24 12:53:37;;;;;;;13.75;6.15;;;11.10;99.90;;;;;;5064573;28;20070;-67
2022/11/24 12:56:11;;;;;;;19.42;6.90;;;11.00;99.90;;;;;;5058307;28;20111;-67
2022/11/24 12:59:12;;;;;;;17.50;6.68;;;11.00;99.90;;;;;;5033573;28;20080;-66
2022/11/24 13:01:50;;;;;;;14.75;5.75;;;11.00;99.90;;;;;;5050949;28;20418;-65
2022/11/24 13:04:53;;;;;;;13.45;5.85;;;11.10;99.90;;;;;;5058587;28;20089;-67
2022/11/24 13:07:38;;;;;;;12.73;6.20;;;11.00;99.90;;;;;;5051333;28;20040;-67
2022/11/24 13:10:26;;;;;;;11.45;5.85;;;11.10;99.90;;;;;;5051413;28;20128;-67
2022/11/24 13:13:05;;;;;;;12.95;6.15;;;11.00;99.90;;;;;;5028881;28;20045;-67
2022/11/24 13:15:52;;;;;;;16.98;6.43;;;11.00;99.90;;;;;;5051211;28;20116;-67
2022/11/24 13:18:54;;;;;;;16.52;6.70;;;11.00;99.90;;;;;;5055978;28;20563;-67